Wetterdaten: aktuell Mittwoch, 22.11.2017 02:50
Datum Zeit Temp. auen Feuchte A. Luftdruck Regen Wind Richtung Richtung Sonnenschein Solar Windben
22.11.2017 02:50 2,9 C 77 % 1019,0 hPa 0,0 l/m 4,7 km/h (1 Bft) N-NO 30 0 min 0 W/m 6,4 km/h (2 Bft)
22.11.2017 02:45 3,0 C 76 % 1019,0 hPa 0,0 l/m 3,7 km/h (1 Bft) N-NO 30 0 min 0 W/m 6,4 km/h (2 Bft)
22.11.2017 02:40 3,2 C 75 % 1018,6 hPa 0,0 l/m 1,5 km/h (1 Bft) N-NO 30 0 min 0 W/m 6,4 km/h (2 Bft)
22.11.2017 02:35 3,2 C 75 % 1018,6 hPa 0,0 l/m 1,3 km/h (1 Bft) N-NO 30 0 min 0 W/m 3,2 km/h (1 Bft)
22.11.2017 02:30 3,2 C 75 % 1018,6 hPa 0,0 l/m 2,9 km/h (1 Bft) N-NO 30 0 min 0 W/m 4,8 km/h (1 Bft)
22.11.2017 02:25 3,2 C 75 % 1019,0 hPa 0,0 l/m 1,9 km/h (1 Bft) N-NO 30 0 min 0 W/m 3,2 km/h (1 Bft)
22.11.2017 02:20 3,3 C 75 % 1019,0 hPa 0,0 l/m 1,7 km/h (1 Bft) N-NO 30 0 min 0 W/m 6,4 km/h (2 Bft)
22.11.2017 02:15 3,4 C 76 % 1019,0 hPa 0,0 l/m 5,1 km/h (1 Bft) N-NO 30 0 min 0 W/m 6,4 km/h (2 Bft)
22.11.2017 02:10 3,4 C 76 % 1019,2 hPa 0,0 l/m 5,2 km/h (1 Bft) N-NO 30 0 min 0 W/m 6,4 km/h (2 Bft)
22.11.2017 02:05 3,4 C 76 % 1019,2 hPa 0,0 l/m 6,7 km/h (2 Bft) N-NO 30 0 min 0 W/m 9,7 km/h (2 Bft)
22.11.2017 02:00 3,4 C 76 % 1019,2 hPa 0,0 l/m 7,3 km/h (2 Bft) NO 36 0 min 0 W/m 9,7 km/h (2 Bft)
22.11.2017 01:55 3,4 C 76 % 1019,1 hPa 0,0 l/m 7,6 km/h (2 Bft) N-NO 27 0 min 0 W/m 11,3 km/h (2 Bft)
22.11.2017 01:50 3,3 C 76 % 1019,1 hPa 0,0 l/m 7,1 km/h (2 Bft) N-NO 19 0 min 0 W/m 9,7 km/h (2 Bft)
22.11.2017 01:45 3,3 C 76 % 1019,1 hPa 0,0 l/m 6,4 km/h (2 Bft) N-NO 20 0 min 0 W/m 8,0 km/h (2 Bft)
22.11.2017 01:40 3,4 C 75 % 1019,0 hPa 0,0 l/m 7,4 km/h (2 Bft) N-NO 15 0 min 0 W/m 9,7 km/h (2 Bft)
22.11.2017 01:35 3,4 C 74 % 1019,0 hPa 0,0 l/m 5,7 km/h (1 Bft) N-NO 16 0 min 0 W/m 9,7 km/h (2 Bft)
22.11.2017 01:30 3,3 C 74 % 1019,0 hPa 0,0 l/m 2,1 km/h (1 Bft) N-NO 25 0 min 0 W/m 4,8 km/h (1 Bft)
22.11.2017 01:25 3,4 C 73 % 1019,0 hPa 0,0 l/m 0,0 km/h (0 Bft) N-NO 25 0 min 0 W/m 0,0 km/h (0 Bft)
22.11.2017 01:20 3,4 C 73 % 1019,0 hPa 0,0 l/m 0,0 km/h (0 Bft) N-NO 25 0 min 0 W/m 0,0 km/h (0 Bft)
22.11.2017 01:15 3,6 C 73 % 1019,0 hPa 0,0 l/m 0,0 km/h (0 Bft) N-NO 25 0 min 0 W/m 0,0 km/h (0 Bft)
22.11.2017 01:10 3,7 C 73 % 1018,9 hPa 0,0 l/m 0,8 km/h (0 Bft) N-NO 25 0 min 0 W/m 3,2 km/h (1 Bft)
22.11.2017 01:05 3,8 C 73 % 1018,9 hPa 0,0 l/m 3,4 km/h (1 Bft) N-NO 25 0 min 0 W/m 6,4 km/h (2 Bft)
22.11.2017 01:00 3,9 C 73 % 1018,9 hPa 0,0 l/m 5,6 km/h (1 Bft) N-NO 25 0 min 0 W/m 8,0 km/h (2 Bft)
22.11.2017 00:55 3,9 C 73 % 1018,6 hPa 0,0 l/m 5,1 km/h (1 Bft) N-NO 23 0 min 0 W/m 8,0 km/h (2 Bft)
22.11.2017 00:50 3,9 C 73 % 1018,6 hPa 0,0 l/m 4,9 km/h (1 Bft) N-NO 22 0 min 0 W/m 6,4 km/h (2 Bft)
22.11.2017 00:45 3,9 C 72 % 1018,6 hPa 0,0 l/m 1,3 km/h (1 Bft) N-NO 22 0 min 0 W/m 6,4 km/h (2 Bft)
22.11.2017 00:40 3,9 C 72 % 1018,8 hPa 0,0 l/m 0,0 km/h (0 Bft) N-NO 22 0 min 0 W/m 0,0 km/h (0 Bft)
22.11.2017 00:35 3,9 C 71 % 1018,8 hPa 0,0 l/m 0,0 km/h (0 Bft) N-NO 22 0 min 0 W/m 0,0 km/h (0 Bft)
22.11.2017 00:30 3,9 C 71 % 1018,8 hPa 0,0 l/m 0,0 km/h (0 Bft) N-NO 24 0 min 0 W/m 0,0 km/h (0 Bft)
22.11.2017 00:25 3,9 C 71 % 1018,9 hPa 0,0 l/m 2,1 km/h (1 Bft) N-NO 24 0 min 0 W/m 4,8 km/h (1 Bft)
22.11.2017 00:20 3,9 C 71 % 1018,9 hPa 0,0 l/m 3,4 km/h (1 Bft) N-NO 24 0 min 0 W/m 4,8 km/h (1 Bft)
22.11.2017 00:15 4,0 C 71 % 1018,9 hPa 0,0 l/m 0,8 km/h (0 Bft) N-NO 24 0 min 0 W/m 4,8 km/h (1 Bft)
22.11.2017 00:10 4,1 C 70 % 1019,0 hPa 0,0 l/m 0,0 km/h (0 Bft) N-NO 24 0 min 0 W/m 0,0 km/h (0 Bft)
22.11.2017 00:05 4,3 C 70 % 1019,0 hPa 0,0 l/m 0,0 km/h (0 Bft) N-NO 24 0 min 0 W/m 0,0 km/h (0 Bft)
22.11.2017 00:00 4,3 C 70 % 1019,0 hPa 0,0 l/m 0,0 km/h (0 Bft) N-NO 24 0 min 0 W/m 0,0 km/h (0 Bft)
_ Min-Zeit 02:50 00:00 00:45 - 00:00 - - - - 00:00
Minimum _ 2,9 C 70 % 1018,6 hPa - 0,0 km/h (0 Bft) - - - - 0,0 km/h (0 Bft)
_ Max-Zeit 00:00 02:50 02:00 00:00 01:55 - - 00:00 00:00 01:55
Maximum _ 4,3 C 77 % 1019,2 hPa 0,0 l/m 7,6 km/h
N-NO (2 Bft)
- - 0 min 0 W/m 11,3 km/h
N-NO (2 Bft)
Durchschnitt _ 3,6 C 74 % 1018,9 hPa #0,0 l/m 3,0 km/h (1 Bft) N-NO - #0 min. 0 W/m 5,0 km/h (1 Bft)